createdAt,value
2023-02-19T00:00:38.078Z,1001.2
2023-02-19T00:01:54.521Z,1001.2
2023-02-19T00:03:09.493Z,1001.2
2023-02-19T00:04:19.000Z,1001.3
2023-02-19T00:05:21.000Z,1001.2
2023-02-19T00:05:40.906Z,1001.4
2023-02-19T00:06:56.358Z,1001.2
2023-02-19T00:08:12.310Z,1001.3
2023-02-19T00:09:28.755Z,1001.2
2023-02-19T00:11:53.000Z,1001.3
2023-02-19T00:13:16.368Z,1001.3
2023-02-19T00:14:25.000Z,1001.2
2023-02-19T00:15:47.515Z,1001.1
2023-02-19T00:16:57.000Z,1001.1
2023-02-19T00:18:13.000Z,1001.1
2023-02-19T00:19:29.000Z,1001.1
2023-02-19T00:20:52.289Z,1001.1
2023-02-19T00:22:08.483Z,1001.1
2023-02-19T00:23:24.676Z,1001.2
2023-02-19T00:24:40.870Z,1001.2
2023-02-19T00:25:57.063Z,1001.1
2023-02-19T00:27:13.256Z,1001.2
2023-02-19T00:28:29.694Z,1001.2
2023-02-19T00:29:39.000Z,1001.2
2023-02-19T00:31:01.837Z,1001.2
2023-02-19T00:32:10.000Z,1001.3
2023-02-19T00:33:33.240Z,1001.2
2023-02-19T00:34:49.434Z,1001.1
2023-02-19T00:36:05.628Z,1001.1
2023-02-19T00:37:22.075Z,1001.2
2023-02-19T00:38:38.015Z,1001.2
2023-02-19T00:39:53.482Z,1001.2
2023-02-19T00:41:02.000Z,1001.1
2023-02-19T00:42:23.911Z,1001.1
2023-02-19T00:43:39.127Z,1001.2
2023-02-19T00:44:55.317Z,1001.2
2023-02-19T00:46:11.263Z,1001.1
2023-02-19T00:47:21.000Z,1001.1
2023-02-19T00:48:37.000Z,1001.1
2023-02-19T00:49:59.844Z,1001.1
2023-02-19T00:51:16.296Z,1001.1
2023-02-19T00:52:38.051Z,1001.2
2023-02-19T00:53:48.425Z,1001.2
2023-02-19T00:55:04.619Z,1001.1
2023-02-19T00:56:21.068Z,1001.1
2023-02-19T00:57:30.000Z,1001.1
2023-02-19T00:58:53.200Z,1001
2023-02-19T01:00:08.409Z,1001
2023-02-19T01:01:24.603Z,1001
2023-02-19T01:02:34.000Z,1001.1
2023-02-19T01:03:50.000Z,1001.2
2023-02-19T01:05:13.184Z,1001.1
2023-02-19T01:06:29.377Z,1001.1
2023-02-19T01:07:45.571Z,1001.2
2023-02-19T01:09:01.765Z,1001
2023-02-19T01:11:26.000Z,1001
2023-02-19T01:12:42.000Z,1000.9
2023-02-19T01:14:03.608Z,1001.1
2023-02-19T01:15:19.074Z,1001.1
2023-02-19T01:16:34.039Z,1001.1
2023-02-19T01:17:50.232Z,1001.1
2023-02-19T01:19:06.426Z,1001
2023-02-19T01:20:22.620Z,1001
2023-02-19T01:21:38.813Z,1001
2023-02-19T01:22:48.000Z,1001
2023-02-19T01:24:11.201Z,1001.1
2023-02-19T01:25:27.394Z,1001.1
2023-02-19T01:26:43.588Z,1001
2023-02-19T01:28:00.029Z,1001
2023-02-19T01:29:15.976Z,1001
2023-02-19T01:30:32.170Z,1000.9
2023-02-19T01:31:48.363Z,1000.9
2023-02-19T01:33:03.573Z,1000.9
2023-02-19T01:34:19.767Z,1000.9
2023-02-19T01:35:35.961Z,1000.9
2023-02-19T01:36:52.405Z,1000.8
2023-02-19T01:38:08.600Z,1000.8
2023-02-19T01:39:24.541Z,1000.7
2023-02-19T01:40:34.000Z,1000.7
2023-02-19T01:41:56.928Z,1000.7
2023-02-19T01:43:05.000Z,1000.7
2023-02-19T01:44:27.359Z,1000.7
2023-02-19T01:45:42.579Z,1000.6
2023-02-19T01:46:57.789Z,1000.6
2023-02-19T01:48:07.000Z,1000.6
2023-02-19T01:49:30.176Z,1000.7
2023-02-19T01:50:40.000Z,1000.6
2023-02-19T01:51:56.000Z,1000.7
2023-02-19T01:53:18.757Z,1000.8
2023-02-19T01:54:34.950Z,1000.8
2023-02-19T01:55:48.000Z,1000.8
2023-02-19T01:57:07.338Z,1000.8
2023-02-19T01:59:20.010Z,1000.8
2023-02-19T01:59:39.725Z,1000.8
2023-02-19T02:00:49.000Z,1000.7
2023-02-19T02:02:12.112Z,1000.8
2023-02-19T02:03:27.571Z,1000.8
2023-02-19T02:04:37.000Z,1000.8
2023-02-19T02:05:59.710Z,1000.7
2023-02-19T02:07:15.905Z,1000.7
2023-02-19T02:08:32.099Z,1000.7
2023-02-19T02:09:48.543Z,1000.6
2023-02-19T02:11:04.486Z,1000.7
2023-02-19T02:12:19.706Z,1000.8
2023-02-19T02:13:28.000Z,1000.8
2023-02-19T02:14:51.360Z,1000.7
2023-02-19T02:16:06.581Z,1000.7
2023-02-19T02:17:21.541Z,1000.8
2023-02-19T02:18:37.734Z,1000.7
2023-02-19T02:19:53.928Z,1000.8
2023-02-19T02:21:07.000Z,1000.8
2023-02-19T02:22:26.316Z,1000.8
2023-02-19T02:23:42.510Z,1000.8
2023-02-19T02:24:58.703Z,1000.8
2023-02-19T02:26:08.000Z,1000.8
2023-02-19T02:27:31.090Z,1000.9
2023-02-19T02:28:47.284Z,1000.8
2023-02-19T02:30:03.723Z,1000.9
2023-02-19T02:31:19.672Z,1000.8
2023-02-19T02:32:29.000Z,1000.8
2023-02-19T02:33:51.076Z,1000.8
2023-02-19T02:35:01.000Z,1000.8
2023-02-19T02:36:23.463Z,1000.8
2023-02-19T02:37:39.657Z,1000.8
2023-02-19T02:38:55.850Z,1000.8
2023-02-19T02:40:12.044Z,1000.8
2023-02-19T02:41:28.479Z,1000.8
2023-02-19T02:42:37.000Z,1000.8
2023-02-19T02:43:58.668Z,1000.8
2023-02-19T02:45:14.862Z,1000.8
2023-02-19T02:46:27.000Z,1000.8
2023-02-19T02:47:45.302Z,1000.8
2023-02-19T02:49:01.496Z,1000.8
2023-02-19T02:50:17.689Z,1000.8
2023-02-19T02:51:27.000Z,1000.7
2023-02-19T02:52:50.077Z,1000.7
2023-02-19T02:54:06.270Z,1000.7
2023-02-19T02:55:22.464Z,1000.8
2023-02-19T02:56:38.658Z,1000.8
2023-02-19T02:57:48.000Z,1000.7
2023-02-19T02:59:11.045Z,1000.8
2023-02-19T03:00:27.238Z,1000.8
2023-02-19T03:01:43.432Z,1000.7
2023-02-19T03:02:59.873Z,1000.7
2023-02-19T03:04:14.835Z,1000.7
2023-02-19T03:05:31.030Z,1000.7
2023-02-19T03:06:47.224Z,1000.6
2023-02-19T03:08:03.417Z,1000.7
2023-02-19T03:09:13.000Z,1000.8
2023-02-19T03:10:29.000Z,1000.8
2023-02-19T03:11:51.999Z,1000.7
2023-02-19T03:13:07.463Z,1000.7
2023-02-19T03:14:16.000Z,1000.7
2023-02-19T03:15:37.900Z,1000.7
2023-02-19T03:16:53.109Z,1000.7
2023-02-19T03:18:09.055Z,1000.7
2023-02-19T03:20:23.303Z,1000.8
2023-02-19T03:20:35.000Z,1000.7
2023-02-19T03:21:54.000Z,1000.7
2023-02-19T03:23:13.829Z,1000.7
2023-02-19T03:24:27.000Z,1000.8
2023-02-19T03:25:46.217Z,1000.8
2023-02-19T03:27:02.663Z,1000.8
2023-02-19T03:28:18.605Z,1000.8
2023-02-19T03:29:34.798Z,1000.8
2023-02-19T03:30:50.992Z,1000.9
2023-02-19T03:32:07.429Z,1000.9
2023-02-19T03:33:22.643Z,1000.9
2023-02-19T03:34:38.840Z,1001
2023-02-19T03:35:48.000Z,1000.9
2023-02-19T03:37:10.976Z,1001
2023-02-19T03:38:27.424Z,1001.1
2023-02-19T03:39:40.000Z,1001
2023-02-19T03:40:59.557Z,1001
2023-02-19T03:42:14.777Z,1001
2023-02-19T03:43:29.987Z,1001
2023-02-19T03:44:46.428Z,1001.1
2023-02-19T03:46:01.650Z,1001
2023-02-19T03:47:16.610Z,1001.1
2023-02-19T03:48:26.000Z,1001.1
2023-02-19T03:49:42.000Z,1001.2
2023-02-19T03:50:58.000Z,1001.2
2023-02-19T03:52:15.000Z,1001.2
2023-02-19T03:53:37.830Z,1001.2
2023-02-19T03:54:53.773Z,1001.1
2023-02-19T03:56:10.212Z,1001.2
2023-02-19T03:57:26.161Z,1001.2
2023-02-19T03:58:42.354Z,1001.1
2023-02-19T03:59:52.000Z,1001.1
2023-02-19T04:01:14.741Z,1001.1
2023-02-19T04:02:30.935Z,1001.1
2023-02-19T04:03:27.000Z,1001.3
2023-02-19T04:03:46.145Z,1001.2
2023-02-19T04:05:02.338Z,1001.2
2023-02-19T04:06:18.532Z,1001.3
2023-02-19T04:07:34.968Z,1001.3
2023-02-19T04:10:00.000Z,1001.3
2023-02-19T04:11:23.306Z,1001.3
2023-02-19T04:12:32.000Z,1001.4
2023-02-19T04:13:53.979Z,1001.3
2023-02-19T04:15:08.957Z,1001.4
2023-02-19T04:16:24.410Z,1001.3
2023-02-19T04:17:40.360Z,1001.4
2023-02-19T04:18:50.000Z,1001.4
2023-02-19T04:20:06.000Z,1001.4
2023-02-19T04:21:28.942Z,1001.4
2023-02-19T04:22:45.136Z,1001.5
2023-02-19T04:24:01.329Z,1001.5
2023-02-19T04:25:17.523Z,1001.4
2023-02-19T04:26:27.000Z,1001.4
2023-02-19T04:27:50.170Z,1001.4
2023-02-19T04:29:06.349Z,1001.4
2023-02-19T04:31:16.981Z,1001.5
2023-02-19T04:31:38.810Z,1001.5
2023-02-19T04:32:53.947Z,1001.5
2023-02-19T04:34:09.895Z,1001.4
2023-02-19T04:35:19.000Z,1001.5
2023-02-19T04:36:42.282Z,1001.5
2023-02-19T04:37:58.476Z,1001.5
2023-02-19T04:39:14.909Z,1001.5
2023-02-19T04:40:30.863Z,1001.5
2023-02-19T04:41:46.084Z,1001.5
2023-02-19T04:43:34.907Z,1001.5
2023-02-19T04:44:16.514Z,1001.4
2023-02-19T04:45:31.724Z,1001.4
2023-02-19T04:46:29.000Z,1001.7
2023-02-19T04:46:48.173Z,1001.5
2023-02-19T04:47:57.000Z,1001.7
2023-02-19T04:49:20.563Z,1001.7
2023-02-19T04:50:30.000Z,1001.7
2023-02-19T04:53:05.000Z,1001.7
2023-02-19T04:54:25.080Z,1001.7
2023-02-19T04:55:41.274Z,1001.7
2023-02-19T04:56:57.468Z,1001.7
2023-02-19T04:58:13.915Z,1001.7
2023-02-19T04:59:29.855Z,1001.8
2023-02-19T05:00:46.049Z,1001.7
2023-02-19T05:02:01.259Z,1001.7
2023-02-19T05:03:11.000Z,1001.7
2023-02-19T05:04:33.645Z,1001.7
2023-02-19T05:05:50.164Z,1001.8
2023-02-19T05:06:59.000Z,1001.8
2023-02-19T05:08:16.000Z,1001.8
2023-02-19T05:09:38.666Z,1001.9
2023-02-19T05:10:53.640Z,1001.9
2023-02-19T05:12:08.851Z,1001.9
2023-02-19T05:13:25.044Z,1002
2023-02-19T05:14:40.264Z,1001.8
2023-02-19T05:15:55.722Z,1001.8
2023-02-19T05:17:05.000Z,1001.9
2023-02-19T05:18:24.000Z,1001.9
2023-02-19T05:19:44.056Z,1001.9
2023-02-19T05:21:00.504Z,1001.9
2023-02-19T05:22:10.000Z,1001.9
2023-02-19T05:23:32.638Z,1002
2023-02-19T05:24:49.082Z,1001.9
2023-02-19T05:26:05.025Z,1001.9
2023-02-19T05:27:14.000Z,1001.9
2023-02-19T05:28:46.785Z,1001.9
2023-02-19T05:29:53.606Z,1002
2023-02-19T05:31:09.799Z,1001.9
2023-02-19T05:32:25.010Z,1001.9
2023-02-19T05:33:54.550Z,1002
2023-02-19T05:34:57.650Z,1001.9
2023-02-19T05:36:13.833Z,1002
2023-02-19T05:37:23.000Z,1001.9
2023-02-19T05:38:45.978Z,1001.9
2023-02-19T05:40:02.420Z,1002
2023-02-19T05:41:17.391Z,1002.1
2023-02-19T05:42:33.827Z,1002.1
2023-02-19T05:43:42.000Z,1002.1
2023-02-19T05:45:04.015Z,1002.1
2023-02-19T05:46:12.000Z,1002.1
2023-02-19T05:47:35.677Z,1002.1
2023-02-19T05:48:51.863Z,1002.2
2023-02-19T05:50:07.807Z,1002.2
2023-02-19T05:51:24.001Z,1002.2
2023-02-19T05:52:40.194Z,1002.2
2023-02-19T05:53:56.388Z,1002.2
2023-02-19T05:55:12.832Z,1002.2
2023-02-19T05:56:28.775Z,1002.3
2023-02-19T05:57:44.969Z,1002.3
2023-02-19T05:58:54.000Z,1002.4
2023-02-19T06:00:17.356Z,1002.4
2023-02-19T06:01:27.000Z,1002.5
2023-02-19T06:02:49.994Z,1002.5
2023-02-19T06:04:05.209Z,1002.4
2023-02-19T06:05:21.396Z,1002.4
2023-02-19T06:06:37.340Z,1002.5
2023-02-19T06:07:53.782Z,1002.6
2023-02-19T06:09:06.000Z,1002.5
2023-02-19T06:10:25.922Z,1002.6
2023-02-19T06:11:41.391Z,1002.6
2023-02-19T06:12:50.000Z,1002.6
2023-02-19T06:14:06.000Z,1002.6
2023-02-19T06:15:28.739Z,1002.6
2023-02-19T06:16:59.080Z,1002.5
2023-02-19T06:17:59.169Z,1002.6
2023-02-19T06:20:02.472Z,1002.7
2023-02-19T06:20:13.000Z,1002.6
2023-02-19T06:20:31.556Z,1002.5
2023-02-19T06:22:06.844Z,1002.6
2023-02-19T06:23:04.188Z,1002.6
2023-02-19T06:24:13.000Z,1002.6
2023-02-19T06:26:52.778Z,1002.6
2023-02-19T06:28:08.975Z,1002.6
2023-02-19T06:30:20.971Z,1002.6
2023-02-19T06:30:34.000Z,1002.6
2023-02-19T06:32:26.342Z,1002.7
2023-02-19T06:33:07.000Z,1002.7
2023-02-19T06:34:10.000Z,1002.8
2023-02-19T06:34:28.946Z,1002.6
2023-02-19T06:35:44.896Z,1002.7
2023-02-19T06:36:54.000Z,1002.8
2023-02-19T06:38:17.536Z,1002.7
2023-02-19T06:40:49.927Z,1002.7
2023-02-19T06:41:59.000Z,1002.7
2023-02-19T06:43:21.336Z,1002.7
2023-02-19T06:44:36.294Z,1002.7
2023-02-19T06:45:52.488Z,1002.8
2023-02-19T06:47:02.000Z,1002.7
2023-02-19T06:48:25.141Z,1002.8
2023-02-19T06:49:34.000Z,1002.8
2023-02-19T06:50:57.510Z,1002.8
2023-02-19T06:52:07.000Z,1002.8
2023-02-19T06:53:29.650Z,1002.8
2023-02-19T06:54:39.000Z,1002.9
2023-02-19T06:56:02.307Z,1002.9
2023-02-19T06:57:11.000Z,1002.8
2023-02-19T06:58:34.424Z,1002.9
2023-02-19T06:59:50.618Z,1003
2023-02-19T07:01:05.833Z,1003
2023-02-19T07:02:15.000Z,1002.9
2023-02-19T07:03:38.470Z,1002.9
2023-02-19T07:04:54.663Z,1003
2023-02-19T07:06:10.608Z,1003.1
2023-02-19T07:07:20.000Z,1003.1
2023-02-19T07:08:43.241Z,1003.1
2023-02-19T07:09:58.459Z,1003.2
2023-02-19T07:11:07.000Z,1003.1
2023-02-19T07:12:22.000Z,1003.1
2023-02-19T07:13:43.856Z,1003.1
2023-02-19T07:15:00.370Z,1003.1
2023-02-19T07:16:15.270Z,1003.2
2023-02-19T07:17:31.729Z,1003.2
2023-02-19T07:18:46.674Z,1003.3
2023-02-19T07:20:36.658Z,1003.2
2023-02-19T07:21:19.060Z,1003.3
2023-02-19T07:22:35.254Z,1003.3
2023-02-19T07:23:45.000Z,1003.4
2023-02-19T07:25:07.641Z,1003.2
2023-02-19T07:26:23.835Z,1003.3
2023-02-19T07:27:50.778Z,1003.3
2023-02-19T07:28:56.465Z,1003.4
2023-02-19T07:30:06.000Z,1003.4
2023-02-19T07:31:28.610Z,1003.4
2023-02-19T07:33:00.527Z,1003.4
2023-02-19T07:34:00.997Z,1003.4
2023-02-19T07:35:16.207Z,1003.4
2023-02-19T07:36:32.653Z,1003.4
2023-02-19T07:37:48.595Z,1003.4
2023-02-19T07:39:04.788Z,1003.5
2023-02-19T07:40:14.000Z,1003.5
2023-02-19T07:41:30.000Z,1003.6
2023-02-19T07:42:46.000Z,1003.6
2023-02-19T07:44:01.000Z,1003.6
2023-02-19T07:46:18.459Z,1003.6
2023-02-19T07:46:39.019Z,1003.6
2023-02-19T07:47:54.229Z,1003.7
2023-02-19T07:49:10.671Z,1003.7
2023-02-19T07:50:20.000Z,1003.6
2023-02-19T07:51:42.810Z,1003.7
2023-02-19T07:52:52.000Z,1003.7
2023-02-19T07:54:15.447Z,1003.7
2023-02-19T07:55:25.000Z,1003.8
2023-02-19T07:56:47.584Z,1003.7
2023-02-19T07:57:57.000Z,1003.8
2023-02-19T07:59:19.972Z,1003.8
2023-02-19T08:00:33.000Z,1003.8
2023-02-19T08:01:52.359Z,1003.9
2023-02-19T08:03:02.000Z,1003.9
2023-02-19T08:04:23.763Z,1003.9
2023-02-19T08:05:33.000Z,1003.9
2023-02-19T08:06:56.150Z,1004
2023-02-19T08:08:12.344Z,1004
2023-02-19T08:09:22.000Z,1004
2023-02-19T08:10:41.000Z,1004
2023-02-19T08:12:01.173Z,1004
2023-02-19T08:13:17.119Z,1004
2023-02-19T08:14:26.000Z,1004.1
2023-02-19T08:15:47.813Z,1004
2023-02-19T08:17:02.770Z,1004
2023-02-19T08:18:11.000Z,1004.1
2023-02-19T08:19:34.647Z,1004.1
2023-02-19T08:20:50.368Z,1004
2023-02-19T08:22:06.563Z,1004.2
2023-02-19T08:23:16.000Z,1004.2
2023-02-19T08:24:38.950Z,1004.2
2023-02-19T08:25:55.144Z,1004.2
2023-02-19T08:27:11.337Z,1004.3
2023-02-19T08:28:27.531Z,1004.2
2023-02-19T08:29:37.000Z,1004.3
2023-02-19T08:30:59.918Z,1004.3
2023-02-19T08:32:09.000Z,1004.3
2023-02-19T08:33:32.556Z,1004.4
2023-02-19T08:34:48.500Z,1004.4
2023-02-19T08:35:57.000Z,1004.4
2023-02-19T08:37:19.903Z,1004.5
2023-02-19T08:38:29.000Z,1004.4
2023-02-19T08:39:52.291Z,1004.4
2023-02-19T08:41:05.000Z,1004.3
2023-02-19T08:42:24.929Z,1004.4
2023-02-19T08:43:39.898Z,1004.5
2023-02-19T08:44:55.355Z,1004.6
2023-02-19T08:46:11.302Z,1004.6
2023-02-19T08:47:07.000Z,1004.5
2023-02-19T08:47:21.000Z,1004.5
2023-02-19T08:48:42.960Z,1004.6
2023-02-19T08:49:59.158Z,1004.6
2023-02-19T08:51:07.000Z,1004.6
2023-02-19T08:53:43.000Z,1004.5
2023-02-19T08:54:56.000Z,1004.6
2023-02-19T08:56:18.893Z,1004.6
2023-02-19T08:57:35.342Z,1004.5
2023-02-19T08:58:45.000Z,1004.6
2023-02-19T09:00:07.729Z,1004.6
2023-02-19T09:01:23.668Z,1004.5
2023-02-19T09:02:40.115Z,1004.6
2023-02-19T09:03:56.301Z,1004.6
2023-02-19T09:05:12.524Z,1004.6
2023-02-19T09:06:28.691Z,1004.6
2023-02-19T09:07:43.653Z,1004.7
2023-02-19T09:08:53.000Z,1004.6
2023-02-19T09:10:16.040Z,1004.6
2023-02-19T09:11:32.482Z,1004.6
2023-02-19T09:12:48.427Z,1004.6
2023-02-19T09:14:01.000Z,1004.7
2023-02-19T09:15:20.090Z,1004.7
2023-02-19T09:16:35.052Z,1004.6
2023-02-19T09:17:51.247Z,1004.6
2023-02-19T09:19:07.441Z,1004.6
2023-02-19T09:20:22.663Z,1004.6
2023-02-19T09:21:31.000Z,1004.6
2023-02-19T09:22:54.070Z,1004.6
2023-02-19T09:24:10.264Z,1004.6
2023-02-19T09:25:26.713Z,1004.6
2023-02-19T09:26:42.654Z,1004.7
2023-02-19T09:27:59.105Z,1004.7
2023-02-19T09:29:15.044Z,1004.7
2023-02-19T09:30:24.000Z,1004.8
2023-02-19T09:31:41.000Z,1004.7
2023-02-19T09:33:03.628Z,1004.8
2023-02-19T09:34:20.072Z,1004.7
2023-02-19T09:35:36.274Z,1004.7
2023-02-19T09:36:45.000Z,1004.7
2023-02-19T09:38:07.676Z,1004.8
2023-02-19T09:40:17.674Z,1004.8
2023-02-19T09:40:39.814Z,1004.8
2023-02-19T09:41:56.009Z,1004.7
2023-02-19T09:43:12.204Z,1004.8
2023-02-19T09:44:28.399Z,1004.9
2023-02-19T09:45:24.000Z,1004.9
2023-02-19T09:45:44.840Z,1004.9
2023-02-19T09:46:59.816Z,1005
2023-02-19T09:48:15.279Z,1005
2023-02-19T09:49:31.223Z,1004.9
2023-02-19T09:52:03.613Z,1005
2023-02-19T09:53:19.809Z,1004.9
2023-02-19T09:54:36.004Z,1004.9
2023-02-19T09:55:52.200Z,1004.9
2023-02-19T09:57:08.395Z,1005
2023-02-19T09:58:24.843Z,1005
2023-02-19T09:59:34.000Z,1005.1
2023-02-19T10:00:57.234Z,1005.1
2023-02-19T10:02:06.000Z,1005
2023-02-19T10:03:29.374Z,1005.1
2023-02-19T10:04:39.000Z,1005.1
2023-02-19T10:05:54.000Z,1005.1
2023-02-19T10:07:16.975Z,1005.1
2023-02-19T10:08:33.433Z,1005.1
2023-02-19T10:09:49.615Z,1005.2
2023-02-19T10:11:05.562Z,1005.2
2023-02-19T10:12:15.000Z,1005.2
2023-02-19T10:13:36.979Z,1005.2
2023-02-19T10:14:52.444Z,1005.2
2023-02-19T10:16:07.412Z,1005.2
2023-02-19T10:18:15.480Z,1005.2
2023-02-19T10:18:38.819Z,1005.2
2023-02-19T10:19:55.014Z,1005.1
2023-02-19T10:21:11.210Z,1005.1
2023-02-19T10:22:27.405Z,1005.1
2023-02-19T10:23:43.601Z,1005.2
2023-02-19T10:24:59.796Z,1005.2
2023-02-19T10:26:15.992Z,1005.2
2023-02-19T10:27:32.187Z,1005.2
2023-02-19T10:28:48.383Z,1005.3
2023-02-19T10:30:04.578Z,1005.4
2023-02-19T10:31:20.774Z,1005.3
2023-02-19T10:32:36.969Z,1005.3
2023-02-19T10:33:52.181Z,1005.4
2023-02-19T10:34:49.000Z,1005.5
2023-02-19T10:35:08.376Z,1005.4
2023-02-19T10:36:24.820Z,1005.4
2023-02-19T10:37:34.000Z,1005.5
2023-02-19T10:38:56.962Z,1005.5
2023-02-19T10:41:29.354Z,1005.6
2023-02-19T10:42:44.575Z,1005.7
2023-02-19T10:43:59.787Z,1005.8
2023-02-19T10:45:15.981Z,1005.6
2023-02-19T10:46:32.177Z,1005.5
2023-02-19T10:47:48.372Z,1005.6
2023-02-19T10:49:04.568Z,1005.6
2023-02-19T10:50:14.000Z,1005.7
2023-02-19T10:51:36.959Z,1005.7
2023-02-19T10:52:46.000Z,1005.8
2023-02-19T10:54:09.350Z,1005.8
2023-02-19T10:55:25.546Z,1005.8
2023-02-19T10:56:41.741Z,1005.8
2023-02-19T10:57:57.937Z,1005.8
2023-02-19T10:59:14.133Z,1005.9
2023-02-19T11:00:29.344Z,1006
2023-02-19T11:01:39.000Z,1005.9
2023-02-19T11:03:01.735Z,1006
2023-02-19T11:04:17.931Z,1006
2023-02-19T11:05:34.126Z,1006
2023-02-19T11:08:06.518Z,1006
2023-02-19T11:09:22.713Z,1006.1
2023-02-19T11:10:37.935Z,1006.1
2023-02-19T11:11:54.131Z,1006.1
2023-02-19T11:13:09.342Z,1006.2
2023-02-19T11:14:24.823Z,1006
2023-02-19T11:15:39.781Z,1006.1
2023-02-19T11:16:55.003Z,1006.2
2023-02-19T11:18:10.214Z,1006.2
2023-02-19T11:19:20.000Z,1006.2
2023-02-19T11:20:36.000Z,1006.2
2023-02-19T11:21:58.801Z,1006.2
2023-02-19T11:23:14.996Z,1006.2
2023-02-19T11:24:31.192Z,1006.2
2023-02-19T11:25:47.643Z,1006.2
2023-02-19T11:27:03.583Z,1006.2
2023-02-19T11:28:20.022Z,1006.3
2023-02-19T11:29:35.974Z,1006.2
2023-02-19T11:30:45.000Z,1006.3
2023-02-19T11:32:08.365Z,1006.2
2023-02-19T11:33:24.561Z,1006.3
2023-02-19T11:34:33.000Z,1006.4
2023-02-19T11:35:55.967Z,1006.3
2023-02-19T11:37:12.163Z,1006.3
2023-02-19T11:38:28.358Z,1006.4
2023-02-19T11:39:44.554Z,1006.3
2023-02-19T11:41:00.749Z,1006.3
2023-02-19T11:42:16.945Z,1006.3
2023-02-19T11:43:26.000Z,1006.3
2023-02-19T11:44:49.581Z,1006.3
2023-02-19T11:46:05.531Z,1006.3
2023-02-19T11:47:21.727Z,1006.3
2023-02-19T11:49:20.365Z,1006.2
2023-02-19T11:49:54.118Z,1006.2
2023-02-19T11:50:50.000Z,1006.1
2023-02-19T11:51:09.577Z,1006.2
2023-02-19T11:52:25.782Z,1006.2
2023-02-19T11:53:41.720Z,1006.2
2023-02-19T11:54:58.166Z,1006.2
2023-02-19T11:57:30.307Z,1006.1
2023-02-19T11:58:46.503Z,1006.1
2023-02-19T12:00:02.948Z,1006.1
2023-02-19T12:01:18.894Z,1006.1
2023-02-19T12:02:35.089Z,1006.1
2023-02-19T12:03:51.285Z,1006.1
2023-02-19T12:05:07.480Z,1006.1
2023-02-19T12:06:17.000Z,1006.1
2023-02-19T12:07:39.145Z,1006.1
2023-02-19T12:08:48.000Z,1006.1
2023-02-19T12:10:11.289Z,1006.1
2023-02-19T12:11:26.500Z,1006.1
2023-02-19T12:12:22.000Z,1006.1
2023-02-19T12:12:41.966Z,1006.1
2023-02-19T12:13:57.186Z,1006.2
2023-02-19T12:14:54.000Z,1006.1
2023-02-19T12:15:06.000Z,1006.1
2023-02-19T12:16:29.324Z,1006
2023-02-19T12:18:55.000Z,1006.1
2023-02-19T12:21:34.370Z,1006.1
2023-02-19T12:22:50.303Z,1006.1
2023-02-19T12:24:06.761Z,1006.2
2023-02-19T12:25:22.694Z,1006.1
2023-02-19T12:26:32.000Z,1006.1
2023-02-19T12:27:48.000Z,1006.1
2023-02-19T12:29:04.000Z,1006.1
2023-02-19T12:30:26.492Z,1006.2
2023-02-19T12:31:36.000Z,1006.1
2023-02-19T12:32:59.126Z,1006.1
2023-02-19T12:34:08.000Z,1006.2
2023-02-19T12:35:31.273Z,1006.2
2023-02-19T12:36:41.000Z,1006.2
2023-02-19T12:38:03.913Z,1006.2
2023-02-19T12:39:19.860Z,1006.1
2023-02-19T12:40:29.000Z,1006.2
2023-02-19T12:41:45.000Z,1006
2023-02-19T12:43:01.000Z,1006
2023-02-19T12:44:16.000Z,1006
2023-02-19T12:45:38.164Z,1006.1
2023-02-19T12:46:46.000Z,1006.1
2023-02-19T12:48:03.000Z,1006.1
2023-02-19T12:49:19.000Z,1006.2
2023-02-19T12:50:35.000Z,1006.2
2023-02-19T12:52:00.009Z,1006.1
2023-02-19T12:52:55.000Z,1006.2
2023-02-19T12:53:14.346Z,1006.2
2023-02-19T12:55:05.390Z,1006.2
2023-02-19T12:55:46.489Z,1006.2
2023-02-19T12:57:09.765Z,1006.1
2023-02-19T12:59:15.000Z,1006.2
2023-02-19T12:59:35.075Z,1006.2
2023-02-19T13:00:51.514Z,1006.1
2023-02-19T13:02:19.521Z,1006.1
2023-02-19T13:03:16.000Z,1006.1
2023-02-19T13:05:48.000Z,1006.1
2023-02-19T13:07:11.505Z,1006.2
2023-02-19T13:08:27.705Z,1006.2
2023-02-19T13:10:31.673Z,1006.2
2023-02-19T13:10:53.000Z,1006.1
2023-02-19T13:12:08.000Z,1006.1
2023-02-19T13:13:30.283Z,1006.1
2023-02-19T13:14:45.505Z,1006.2
2023-02-19T13:16:00.970Z,1006.1
2023-02-19T13:17:16.911Z,1006.2
2023-02-19T13:18:33.350Z,1006.2
2023-02-19T13:19:43.000Z,1006.2
2023-02-19T13:20:46.000Z,1006.2
2023-02-19T13:20:59.000Z,1006.2
2023-02-19T13:22:21.693Z,1006.2
2023-02-19T13:23:31.000Z,1006.2
2023-02-19T13:24:47.000Z,1006.3
2023-02-19T13:27:57.399Z,1006.3
2023-02-19T13:28:42.671Z,1006.3
2023-02-19T13:29:52.000Z,1006.4
2023-02-19T13:31:08.000Z,1006.3
2023-02-19T13:32:23.000Z,1006.4
2023-02-19T13:33:46.469Z,1006.4
2023-02-19T13:35:09.547Z,1006.4
2023-02-19T13:36:18.860Z,1006.3
2023-02-19T13:37:35.055Z,1006.4
2023-02-19T13:38:51.251Z,1006.3
2023-02-19T13:40:07.446Z,1006.4
2023-02-19T13:41:23.886Z,1006.4
2023-02-19T13:43:21.710Z,1006.4
2023-02-19T13:43:54.339Z,1006.3
2023-02-19T13:45:09.552Z,1006.3
2023-02-19T13:46:24.765Z,1006.3
2023-02-19T13:47:34.000Z,1006.3
2023-02-19T13:48:57.154Z,1006.2
2023-02-19T13:50:13.096Z,1006.3
2023-02-19T13:51:22.000Z,1006.3
2023-02-19T13:52:45.487Z,1006.3
2023-02-19T13:54:01.683Z,1006.3
2023-02-19T13:55:17.878Z,1006.4
2023-02-19T13:56:34.074Z,1006.3
2023-02-19T13:57:50.269Z,1006.5
2023-02-19T13:59:06.465Z,1006.5
2023-02-19T14:00:22.660Z,1006.5
2023-02-19T14:01:38.856Z,1006.5
2023-02-19T14:02:54.067Z,1006.5
2023-02-19T14:04:10.264Z,1006.5
2023-02-19T14:05:26.459Z,1006.5
2023-02-19T14:06:36.000Z,1006.5
2023-02-19T14:07:58.850Z,1006.4
2023-02-19T14:08:54.000Z,1006.4
2023-02-19T14:09:15.294Z,1006.5
2023-02-19T14:10:31.241Z,1006.5
2023-02-19T14:11:46.464Z,1006.4
2023-02-19T14:13:02.659Z,1006.5
2023-02-19T14:15:33.093Z,1006.4
2023-02-19T14:16:49.532Z,1006.5
2023-02-19T14:18:05.749Z,1006.5
2023-02-19T14:19:21.680Z,1006.5
2023-02-19T14:20:37.875Z,1006.5
2023-02-19T14:21:47.000Z,1006.6
2023-02-19T14:23:10.266Z,1006.7
2023-02-19T14:24:07.000Z,1006.8
2023-02-19T14:24:26.724Z,1006.7
2023-02-19T14:25:23.000Z,1006.8
2023-02-19T14:25:36.000Z,1006.8
2023-02-19T14:26:58.855Z,1006.7
2023-02-19T14:28:15.050Z,1006.8
2023-02-19T14:32:02.914Z,1006.8
2023-02-19T14:33:12.000Z,1006.8
2023-02-19T14:34:35.046Z,1006.8
2023-02-19T14:35:51.241Z,1006.9
2023-02-19T14:37:01.000Z,1006.9
2023-02-19T14:38:23.880Z,1006.9
2023-02-19T14:39:33.000Z,1006.9
2023-02-19T14:40:55.052Z,1006.9
2023-02-19T14:42:03.000Z,1006.9
2023-02-19T14:43:56.985Z,1007
2023-02-19T14:44:42.656Z,1007
2023-02-19T14:45:58.130Z,1007
2023-02-19T14:47:14.460Z,1007
2023-02-19T14:48:30.392Z,1007
2023-02-19T14:49:46.589Z,1007.1
2023-02-19T14:50:56.000Z,1007.1
2023-02-19T14:52:12.000Z,1007.2
2023-02-19T14:53:16.000Z,1007.2
2023-02-19T14:53:35.175Z,1007.1
2023-02-19T14:54:51.615Z,1007.2
2023-02-19T14:56:07.566Z,1007.2
2023-02-19T14:57:17.000Z,1007.3
2023-02-19T14:59:56.153Z,1007.2
2023-02-19T15:01:06.000Z,1007.2
2023-02-19T15:02:28.545Z,1007.2
2023-02-19T15:03:44.005Z,1007.2
2023-02-19T15:04:59.952Z,1007.2
2023-02-19T15:06:16.147Z,1007.2
2023-02-19T15:07:32.597Z,1007.2
2023-02-19T15:08:42.000Z,1007.3
2023-02-19T15:10:04.735Z,1007.2
2023-02-19T15:11:20.930Z,1007.2
2023-02-19T15:12:36.153Z,1007.3
2023-02-19T15:13:45.000Z,1007.2
2023-02-19T15:15:07.561Z,1007.3
2023-02-19T15:16:23.029Z,1007.3
2023-02-19T15:17:31.000Z,1007.2
2023-02-19T15:18:54.190Z,1007.1
2023-02-19T15:19:51.000Z,1007.1
2023-02-19T15:20:04.000Z,1007.1
2023-02-19T15:21:20.000Z,1007.1
2023-02-19T15:22:42.778Z,1007
2023-02-19T15:23:52.000Z,1007
2023-02-19T15:26:31.364Z,1007
2023-02-19T15:27:47.560Z,1007
2023-02-19T15:28:57.000Z,1007
2023-02-19T15:30:18.973Z,1006.9
2023-02-19T15:31:28.000Z,1007
2023-02-19T15:32:51.609Z,1006.9
2023-02-19T15:34:01.000Z,1007
2023-02-19T15:35:24.012Z,1006.9
2023-02-19T15:36:39.951Z,1006.9
2023-02-19T15:37:56.149Z,1006.9
2023-02-19T15:39:12.344Z,1006.9
2023-02-19T15:40:28.789Z,1006.9
2023-02-19T15:42:32.956Z,1006.8
2023-02-19T15:43:00.205Z,1006.8
2023-02-19T15:44:15.169Z,1006.7
2023-02-19T15:45:31.614Z,1006.7
2023-02-19T15:46:46.588Z,1006.7
2023-02-19T15:48:02.784Z,1006.7
2023-02-19T15:49:11.000Z,1006.7
2023-02-19T15:50:34.436Z,1006.7
2023-02-19T15:51:50.630Z,1006.7
2023-02-19T15:53:00.000Z,1006.6
2023-02-19T15:54:22.780Z,1006.6
2023-02-19T15:55:39.240Z,1006.5